sensor_id;sensor_type;location;lat;lon;timestamp;temperature;humidity
4090;DHT22;2059;48.538;12.146;2023-07-24T00:01:51;23.40;64.60
4090;DHT22;2059;48.538;12.146;2023-07-24T00:06:52;23.30;64.70
4090;DHT22;2059;48.538;12.146;2023-07-24T00:11:56;23.30;65.10
4090;DHT22;2059;48.538;12.146;2023-07-24T00:16:58;23.20;65.40
4090;DHT22;2059;48.538;12.146;2023-07-24T00:22:00;23.10;65.80
4090;DHT22;2059;48.538;12.146;2023-07-24T00:27:04;23.10;66.10
4090;DHT22;2059;48.538;12.146;2023-07-24T00:32:06;22.90;66.40
4090;DHT22;2059;48.538;12.146;2023-07-24T00:37:08;23.00;66.60
4090;DHT22;2059;48.538;12.146;2023-07-24T00:42:11;22.90;66.70
4090;DHT22;2059;48.538;12.146;2023-07-24T00:47:13;22.70;67.20
4090;DHT22;2059;48.538;12.146;2023-07-24T00:52:15;22.80;67.90
4090;DHT22;2059;48.538;12.146;2023-07-24T00:57:19;22.60;68.30
4090;DHT22;2059;48.538;12.146;2023-07-24T01:02:21;22.60;69.10
4090;DHT22;2059;48.538;12.146;2023-07-24T01:07:23;22.60;69.70
4090;DHT22;2059;48.538;12.146;2023-07-24T01:12:31;22.60;69.70
4090;DHT22;2059;48.538;12.146;2023-07-24T01:17:38;22.50;69.40
4090;DHT22;2059;48.538;12.146;2023-07-24T01:22:59;22.40;70.10
4090;DHT22;2059;48.538;12.146;2023-07-24T01:28:08;22.30;70.50
4090;DHT22;2059;48.538;12.146;2023-07-24T01:33:10;22.40;70.40
4090;DHT22;2059;48.538;12.146;2023-07-24T01:38:13;22.30;71.00
4090;DHT22;2059;48.538;12.146;2023-07-24T01:43:16;22.20;71.50
4090;DHT22;2059;48.538;12.146;2023-07-24T01:48:18;22.20;72.10
4090;DHT22;2059;48.538;12.146;2023-07-24T01:53:20;22.20;72.30
4090;DHT22;2059;48.538;12.146;2023-07-24T01:58:23;22.20;72.60
4090;DHT22;2059;48.538;12.146;2023-07-24T02:03:24;22.20;72.70
4090;DHT22;2059;48.538;12.146;2023-07-24T02:08:26;22.20;72.60
4090;DHT22;2059;48.538;12.146;2023-07-24T02:13:29;22.20;73.10
4090;DHT22;2059;48.538;12.146;2023-07-24T02:18:31;22.20;73.00
4090;DHT22;2059;48.538;12.146;2023-07-24T02:23:33;22.20;73.00
4090;DHT22;2059;48.538;12.146;2023-07-24T02:28:36;22.30;72.20
4090;DHT22;2059;48.538;12.146;2023-07-24T02:33:38;22.30;72.20
4090;DHT22;2059;48.538;12.146;2023-07-24T02:38:40;22.30;72.50
4090;DHT22;2059;48.538;12.146;2023-07-24T02:43:43;22.20;72.60
4090;DHT22;2059;48.538;12.146;2023-07-24T02:48:45;22.20;72.60
4090;DHT22;2059;48.538;12.146;2023-07-24T02:53:46;22.20;72.50
4090;DHT22;2059;48.538;12.146;2023-07-24T02:58:50;22.00;73.30
4090;DHT22;2059;48.538;12.146;2023-07-24T03:03:51;22.10;74.00
4090;DHT22;2059;48.538;12.146;2023-07-24T03:08:53;22.00;74.20
4090;DHT22;2059;48.538;12.146;2023-07-24T03:13:56;22.00;73.70
4090;DHT22;2059;48.538;12.146;2023-07-24T03:18:58;22.00;73.40
4090;DHT22;2059;48.538;12.146;2023-07-24T03:24:00;22.00;75.00
4090;DHT22;2059;48.538;12.146;2023-07-24T03:29:04;22.10;76.90
4090;DHT22;2059;48.538;12.146;2023-07-24T03:34:06;21.90;79.30
4090;DHT22;2059;48.538;12.146;2023-07-24T03:39:09;21.70;79.20
4090;DHT22;2059;48.538;12.146;2023-07-24T03:44:13;21.50;80.80
4090;DHT22;2059;48.538;12.146;2023-07-24T03:49:15;21.50;82.70
4090;DHT22;2059;48.538;12.146;2023-07-24T03:54:16;21.20;86.10
4090;DHT22;2059;48.538;12.146;2023-07-24T03:59:19;21.30;90.60
4090;DHT22;2059;48.538;12.146;2023-07-24T04:04:21;21.30;92.40
4090;DHT22;2059;48.538;12.146;2023-07-24T04:09:23;21.20;93.30
4090;DHT22;2059;48.538;12.146;2023-07-24T04:14:26;21.30;94.50
4090;DHT22;2059;48.538;12.146;2023-07-24T04:19:28;21.40;95.50
4090;DHT22;2059;48.538;12.146;2023-07-24T04:24:30;21.30;96.00
4090;DHT22;2059;48.538;12.146;2023-07-24T04:29:33;21.30;96.90
4090;DHT22;2059;48.538;12.146;2023-07-24T04:34:35;21.40;97.40
4090;DHT22;2059;48.538;12.146;2023-07-24T04:39:38;21.30;97.70
4090;DHT22;2059;48.538;12.146;2023-07-24T04:44:41;21.40;98.10
4090;DHT22;2059;48.538;12.146;2023-07-24T04:49:43;21.50;98.30
4090;DHT22;2059;48.538;12.146;2023-07-24T04:54:45;21.50;98.60
4090;DHT22;2059;48.538;12.146;2023-07-24T04:59:48;21.50;99.00
4090;DHT22;2059;48.538;12.146;2023-07-24T05:04:50;21.70;98.50
4090;DHT22;2059;48.538;12.146;2023-07-24T05:09:52;21.70;98.90
4090;DHT22;2059;48.538;12.146;2023-07-24T05:14:55;21.70;98.70
4090;DHT22;2059;48.538;12.146;2023-07-24T05:19:56;21.90;98.60
4090;DHT22;2059;48.538;12.146;2023-07-24T05:24:58;21.80;98.80
4090;DHT22;2059;48.538;12.146;2023-07-24T05:30:02;21.80;99.20
4090;DHT22;2059;48.538;12.146;2023-07-24T05:35:04;21.90;99.60
4090;DHT22;2059;48.538;12.146;2023-07-24T05:40:07;21.90;99.10
4090;DHT22;2059;48.538;12.146;2023-07-24T05:45:10;21.90;99.10
4090;DHT22;2059;48.538;12.146;2023-07-24T05:50:12;22.00;99.10
4090;DHT22;2059;48.538;12.146;2023-07-24T05:55:14;22.00;98.80
4090;DHT22;2059;48.538;12.146;2023-07-24T06:00:18;22.10;99.10
4090;DHT22;2059;48.538;12.146;2023-07-24T06:05:20;22.20;98.40
4090;DHT22;2059;48.538;12.146;2023-07-24T06:10:22;22.30;98.40
4090;DHT22;2059;48.538;12.146;2023-07-24T06:15:25;22.30;98.20
4090;DHT22;2059;48.538;12.146;2023-07-24T06:20:27;22.30;98.30
4090;DHT22;2059;48.538;12.146;2023-07-24T06:25:28;22.40;98.30
4090;DHT22;2059;48.538;12.146;2023-07-24T06:30:32;22.60;98.00
4090;DHT22;2059;48.538;12.146;2023-07-24T06:35:33;23.10;97.70
4090;DHT22;2059;48.538;12.146;2023-07-24T06:40:36;23.40;97.10
4090;DHT22;2059;48.538;12.146;2023-07-24T06:45:39;23.10;97.10
4090;DHT22;2059;48.538;12.146;2023-07-24T06:50:41;23.10;97.30
4090;DHT22;2059;48.538;12.146;2023-07-24T06:55:43;23.10;97.60
4090;DHT22;2059;48.538;12.146;2023-07-24T07:00:46;22.90;97.50
4090;DHT22;2059;48.538;12.146;2023-07-24T07:05:48;23.00;97.30
4090;DHT22;2059;48.538;12.146;2023-07-24T07:10:55;23.40;96.90
4090;DHT22;2059;48.538;12.146;2023-07-24T07:15:58;23.50;97.00
4090;DHT22;2059;48.538;12.146;2023-07-24T07:21:00;24.00;96.50
4090;DHT22;2059;48.538;12.146;2023-07-24T07:26:01;24.60;96.00
4090;DHT22;2059;48.538;12.146;2023-07-24T07:31:04;25.20;94.80
4090;DHT22;2059;48.538;12.146;2023-07-24T07:36:06;25.50;94.70
4090;DHT22;2059;48.538;12.146;2023-07-24T07:41:08;25.70;94.00
4090;DHT22;2059;48.538;12.146;2023-07-24T07:46:11;25.40;94.10
4090;DHT22;2059;48.538;12.146;2023-07-24T07:51:13;25.20;94.40
4090;DHT22;2059;48.538;12.146;2023-07-24T07:56:14;24.80;94.70
4090;DHT22;2059;48.538;12.146;2023-07-24T08:01:17;24.70;95.00
4090;DHT22;2059;48.538;12.146;2023-07-24T08:06:19;24.60;96.20
4090;DHT22;2059;48.538;12.146;2023-07-24T08:11:22;24.20;96.90
4090;DHT22;2059;48.538;12.146;2023-07-24T08:16:25;23.80;97.60
4090;DHT22;2059;48.538;12.146;2023-07-24T08:21:27;23.80;97.90
4090;DHT22;2059;48.538;12.146;2023-07-24T08:26:28;24.00;97.80
4090;DHT22;2059;48.538;12.146;2023-07-24T08:31:31;24.10;97.30
4090;DHT22;2059;48.538;12.146;2023-07-24T08:36:33;24.10;96.60
4090;DHT22;2059;48.538;12.146;2023-07-24T08:41:36;24.10;96.20
4090;DHT22;2059;48.538;12.146;2023-07-24T08:46:40;23.70;97.10
4090;DHT22;2059;48.538;12.146;2023-07-24T08:51:47;23.50;97.50
4090;DHT22;2059;48.538;12.146;2023-07-24T08:56:48;23.30;98.40
4090;DHT22;2059;48.538;12.146;2023-07-24T09:01:53;23.20;98.80
4090;DHT22;2059;48.538;12.146;2023-07-24T09:06:56;23.20;99.10
4090;DHT22;2059;48.538;12.146;2023-07-24T09:11:58;23.10;99.10
4090;DHT22;2059;48.538;12.146;2023-07-24T09:17:06;23.10;99.00
4090;DHT22;2059;48.538;12.146;2023-07-24T09:22:10;23.10;98.60
4090;DHT22;2059;48.538;12.146;2023-07-24T09:27:13;23.10;99.00
4090;DHT22;2059;48.538;12.146;2023-07-24T09:32:24;23.20;98.60
4090;DHT22;2059;48.538;12.146;2023-07-24T09:37:26;23.30;98.70
4090;DHT22;2059;48.538;12.146;2023-07-24T09:42:30;23.40;98.20
4090;DHT22;2059;48.538;12.146;2023-07-24T09:47:33;23.90;98.00
4090;DHT22;2059;48.538;12.146;2023-07-24T09:52:36;24.20;96.10
4090;DHT22;2059;48.538;12.146;2023-07-24T09:57:44;24.40;96.40
4090;DHT22;2059;48.538;12.146;2023-07-24T10:02:48;24.90;97.00
4090;DHT22;2059;48.538;12.146;2023-07-24T10:07:50;25.40;96.60
4090;DHT22;2059;48.538;12.146;2023-07-24T10:12:52;26.10;95.80
4090;DHT22;2059;48.538;12.146;2023-07-24T10:18:03;26.40;94.30
4090;DHT22;2059;48.538;12.146;2023-07-24T10:23:06;26.30;94.30
4090;DHT22;2059;48.538;12.146;2023-07-24T10:28:09;26.20;93.90
4090;DHT22;2059;48.538;12.146;2023-07-24T10:33:17;26.10;93.40
4090;DHT22;2059;48.538;12.146;2023-07-24T10:38:19;25.80;92.90
4090;DHT22;2059;48.538;12.146;2023-07-24T10:43:22;25.70;93.30
4090;DHT22;2059;48.538;12.146;2023-07-24T10:48:26;25.80;93.40
4090;DHT22;2059;48.538;12.146;2023-07-24T10:53:28;25.70;93.60
4090;DHT22;2059;48.538;12.146;2023-07-24T10:58:30;25.70;93.80
4090;DHT22;2059;48.538;12.146;2023-07-24T11:03:35;25.60;94.20
4090;DHT22;2059;48.538;12.146;2023-07-24T11:08:37;25.80;93.90
4090;DHT22;2059;48.538;12.146;2023-07-24T11:13:40;26.10;93.80
4090;DHT22;2059;48.538;12.146;2023-07-24T11:18:47;26.10;93.90
4090;DHT22;2059;48.538;12.146;2023-07-24T11:23:51;26.00;93.90
4090;DHT22;2059;48.538;12.146;2023-07-24T11:28:54;26.00;94.00
4090;DHT22;2059;48.538;12.146;2023-07-24T11:33:57;25.90;94.40
4090;DHT22;2059;48.538;12.146;2023-07-24T11:38:59;26.30;94.90
4090;DHT22;2059;48.538;12.146;2023-07-24T11:44:01;27.30;93.40
4090;DHT22;2059;48.538;12.146;2023-07-24T11:49:04;27.50;93.10
4090;DHT22;2059;48.538;12.146;2023-07-24T11:54:07;27.40;91.60
4090;DHT22;2059;48.538;12.146;2023-07-24T11:59:12;27.60;90.70
4090;DHT22;2059;48.538;12.146;2023-07-24T12:04:16;27.90;83.80
4090;DHT22;2059;48.538;12.146;2023-07-24T12:09:18;28.30;82.10
4090;DHT22;2059;48.538;12.146;2023-07-24T12:14:19;28.60;77.40
4090;DHT22;2059;48.538;12.146;2023-07-24T12:19:22;28.70;77.80
4090;DHT22;2059;48.538;12.146;2023-07-24T12:24:24;28.80;75.30
4090;DHT22;2059;48.538;12.146;2023-07-24T12:29:26;29.00;76.10
4090;DHT22;2059;48.538;12.146;2023-07-24T12:34:29;28.90;74.80
4090;DHT22;2059;48.538;12.146;2023-07-24T12:39:31;28.70;76.00
4090;DHT22;2059;48.538;12.146;2023-07-24T12:44:32;28.30;77.10
4090;DHT22;2059;48.538;12.146;2023-07-24T12:49:36;27.90;79.00
4090;DHT22;2059;48.538;12.146;2023-07-24T12:54:37;27.50;81.40
4090;DHT22;2059;48.538;12.146;2023-07-24T12:59:39;27.00;86.50
4090;DHT22;2059;48.538;12.146;2023-07-24T13:04:42;26.50;91.00
4090;DHT22;2059;48.538;12.146;2023-07-24T13:09:45;25.80;93.20
4090;DHT22;2059;48.538;12.146;2023-07-24T13:14:46;25.30;95.30
4090;DHT22;2059;48.538;12.146;2023-07-24T13:19:49;25.10;97.50
4090;DHT22;2059;48.538;12.146;2023-07-24T13:24:51;25.30;99.10
4090;DHT22;2059;48.538;12.146;2023-07-24T13:29:53;25.70;98.50
4090;DHT22;2059;48.538;12.146;2023-07-24T13:34:56;25.90;98.70
4090;DHT22;2059;48.538;12.146;2023-07-24T13:39:59;26.00;97.70
4090;DHT22;2059;48.538;12.146;2023-07-24T13:45:01;26.10;98.70
4090;DHT22;2059;48.538;12.146;2023-07-24T13:50:05;26.20;97.70
4090;DHT22;2059;48.538;12.146;2023-07-24T13:55:08;26.20;96.40
4090;DHT22;2059;48.538;12.146;2023-07-24T14:00:10;25.70;96.70
4090;DHT22;2059;48.538;12.146;2023-07-24T14:05:15;25.50;97.10
4090;DHT22;2059;48.538;12.146;2023-07-24T14:10:16;25.60;97.90
4090;DHT22;2059;48.538;12.146;2023-07-24T14:15:18;25.60;97.30
4090;DHT22;2059;48.538;12.146;2023-07-24T14:20:22;25.60;97.70
4090;DHT22;2059;48.538;12.146;2023-07-24T14:25:23;25.50;97.80
4090;DHT22;2059;48.538;12.146;2023-07-24T14:30:25;25.60;97.80
4090;DHT22;2059;48.538;12.146;2023-07-24T14:35:28;25.70;97.50
4090;DHT22;2059;48.538;12.146;2023-07-24T14:40:30;25.90;96.50
4090;DHT22;2059;48.538;12.146;2023-07-24T14:45:32;26.00;96.40
4090;DHT22;2059;48.538;12.146;2023-07-24T14:50:35;26.10;96.30
4090;DHT22;2059;48.538;12.146;2023-07-24T14:55:37;26.10;96.80
4090;DHT22;2059;48.538;12.146;2023-07-24T15:00:39;26.20;96.70
4090;DHT22;2059;48.538;12.146;2023-07-24T15:05:42;26.40;96.80
4090;DHT22;2059;48.538;12.146;2023-07-24T15:10:44;26.40;95.20
4090;DHT22;2059;48.538;12.146;2023-07-24T15:15:45;26.50;96.10
4090;DHT22;2059;48.538;12.146;2023-07-24T15:20:48;26.90;94.30
4090;DHT22;2059;48.538;12.146;2023-07-24T15:25:50;27.00;95.60
4090;DHT22;2059;48.538;12.146;2023-07-24T15:30:52;27.20;95.10
4090;DHT22;2059;48.538;12.146;2023-07-24T15:35:55;27.30;91.70
4090;DHT22;2059;48.538;12.146;2023-07-24T15:40:57;27.40;89.50
4090;DHT22;2059;48.538;12.146;2023-07-24T15:45:59;27.80;91.30
4090;DHT22;2059;48.538;12.146;2023-07-24T15:51:03;27.80;91.10
4090;DHT22;2059;48.538;12.146;2023-07-24T15:56:04;27.40;91.50
4090;DHT22;2059;48.538;12.146;2023-07-24T16:01:07;26.90;91.00
4090;DHT22;2059;48.538;12.146;2023-07-24T16:06:10;26.50;91.50
4090;DHT22;2059;48.538;12.146;2023-07-24T16:11:12;26.10;91.60
4090;DHT22;2059;48.538;12.146;2023-07-24T16:16:14;26.00;91.80
4090;DHT22;2059;48.538;12.146;2023-07-24T16:21:17;25.90;92.10
4090;DHT22;2059;48.538;12.146;2023-07-24T16:26:19;25.70;92.20
4090;DHT22;2059;48.538;12.146;2023-07-24T16:31:21;25.50;92.50
4090;DHT22;2059;48.538;12.146;2023-07-24T16:36:24;25.40;92.80
4090;DHT22;2059;48.538;12.146;2023-07-24T16:41:25;25.20;93.10
4090;DHT22;2059;48.538;12.146;2023-07-24T16:46:27;25.10;93.70
4090;DHT22;2059;48.538;12.146;2023-07-24T16:51:30;25.10;93.80
4090;DHT22;2059;48.538;12.146;2023-07-24T16:56:32;25.00;94.00
4090;DHT22;2059;48.538;12.146;2023-07-24T17:01:34;24.70;94.60
4090;DHT22;2059;48.538;12.146;2023-07-24T17:06:37;24.60;95.40
4090;DHT22;2059;48.538;12.146;2023-07-24T17:11:39;24.60;96.10
4090;DHT22;2059;48.538;12.146;2023-07-24T17:16:41;24.50;96.70
4090;DHT22;2059;48.538;12.146;2023-07-24T17:21:44;24.20;96.70
4090;DHT22;2059;48.538;12.146;2023-07-24T17:26:46;24.00;97.00
4090;DHT22;2059;48.538;12.146;2023-07-24T17:31:48;23.90;97.30
4090;DHT22;2059;48.538;12.146;2023-07-24T17:36:51;23.80;98.10
4090;DHT22;2059;48.538;12.146;2023-07-24T17:41:53;24.10;98.60
4090;DHT22;2059;48.538;12.146;2023-07-24T17:46:55;24.40;98.00
4090;DHT22;2059;48.538;12.146;2023-07-24T17:51:58;24.30;98.10
4090;DHT22;2059;48.538;12.146;2023-07-24T17:57:00;24.20;98.20
4090;DHT22;2059;48.538;12.146;2023-07-24T18:02:03;24.20;98.40
4090;DHT22;2059;48.538;12.146;2023-07-24T18:07:06;24.30;98.10
4090;DHT22;2059;48.538;12.146;2023-07-24T18:12:08;24.20;98.70
4090;DHT22;2059;48.538;12.146;2023-07-24T18:17:10;24.00;98.50
4090;DHT22;2059;48.538;12.146;2023-07-24T18:22:13;23.90;98.90
4090;DHT22;2059;48.538;12.146;2023-07-24T18:27:18;23.90;99.30
4090;DHT22;2059;48.538;12.146;2023-07-24T18:32:20;23.80;99.40
4090;DHT22;2059;48.538;12.146;2023-07-24T18:37:25;23.70;99.80
4090;DHT22;2059;48.538;12.146;2023-07-24T18:42:27;23.70;99.90
4090;DHT22;2059;48.538;12.146;2023-07-24T18:47:29;23.60;99.90
4090;DHT22;2059;48.538;12.146;2023-07-24T18:52:32;23.60;99.90
4090;DHT22;2059;48.538;12.146;2023-07-24T18:57:34;23.50;99.90
4090;DHT22;2059;48.538;12.146;2023-07-24T19:02:36;23.40;99.90
4090;DHT22;2059;48.538;12.146;2023-07-24T19:07:39;23.40;99.90
4090;DHT22;2059;48.538;12.146;2023-07-24T19:12:41;23.40;99.90
4090;DHT22;2059;48.538;12.146;2023-07-24T19:17:43;23.30;99.90
4090;DHT22;2059;48.538;12.146;2023-07-24T19:22:47;23.30;99.90
4090;DHT22;2059;48.538;12.146;2023-07-24T19:27:49;23.20;99.90
4090;DHT22;2059;48.538;12.146;2023-07-24T19:32:51;23.20;99.90
4090;DHT22;2059;48.538;12.146;2023-07-24T19:37:55;23.20;99.90
4090;DHT22;2059;48.538;12.146;2023-07-24T19:42:57;23.10;99.90
4090;DHT22;2059;48.538;12.146;2023-07-24T19:47:58;23.10;99.90
4090;DHT22;2059;48.538;12.146;2023-07-24T19:53:02;23.10;99.90
4090;DHT22;2059;48.538;12.146;2023-07-24T19:58:03;23.10;99.90
4090;DHT22;2059;48.538;12.146;2023-07-24T20:03:05;23.10;99.90
4090;DHT22;2059;48.538;12.146;2023-07-24T20:08:08;23.00;99.90
4090;DHT22;2059;48.538;12.146;2023-07-24T20:13:10;23.00;99.90
4090;DHT22;2059;48.538;12.146;2023-07-24T20:18:12;22.90;99.90
4090;DHT22;2059;48.538;12.146;2023-07-24T20:23:17;22.70;99.90
4090;DHT22;2059;48.538;12.146;2023-07-24T20:28:20;22.70;99.90
4090;DHT22;2059;48.538;12.146;2023-07-24T20:33:22;22.70;99.90
4090;DHT22;2059;48.538;12.146;2023-07-24T20:38:28;22.70;99.90
4090;DHT22;2059;48.538;12.146;2023-07-24T20:43:31;22.50;99.90
4090;DHT22;2059;48.538;12.146;2023-07-24T20:48:32;22.50;99.90
4090;DHT22;2059;48.538;12.146;2023-07-24T20:53:35;22.40;99.90
4090;DHT22;2059;48.538;12.146;2023-07-24T20:58:37;22.40;99.90
4090;DHT22;2059;48.538;12.146;2023-07-24T21:03:39;22.40;99.90
4090;DHT22;2059;48.538;12.146;2023-07-24T21:08:42;22.40;99.90
4090;DHT22;2059;48.538;12.146;2023-07-24T21:13:44;22.40;99.90
4090;DHT22;2059;48.538;12.146;2023-07-24T21:18:46;22.40;99.90
4090;DHT22;2059;48.538;12.146;2023-07-24T21:23:49;22.40;99.90
4090;DHT22;2059;48.538;12.146;2023-07-24T21:28:50;22.30;99.90
4090;DHT22;2059;48.538;12.146;2023-07-24T21:33:52;22.30;99.90
4090;DHT22;2059;48.538;12.146;2023-07-24T21:38:55;22.20;99.90
4090;DHT22;2059;48.538;12.146;2023-07-24T21:43:57;22.30;99.90
4090;DHT22;2059;48.538;12.146;2023-07-24T21:48:59;22.20;99.90
4090;DHT22;2059;48.538;12.146;2023-07-24T21:54:02;22.30;99.90
4090;DHT22;2059;48.538;12.146;2023-07-24T21:59:04;22.20;99.90
4090;DHT22;2059;48.538;12.146;2023-07-24T22:04:05;22.20;99.90
4090;DHT22;2059;48.538;12.146;2023-07-24T22:09:08;22.30;99.90
4090;DHT22;2059;48.538;12.146;2023-07-24T22:14:10;22.20;99.90
4090;DHT22;2059;48.538;12.146;2023-07-24T22:19:12;22.20;99.90
4090;DHT22;2059;48.538;12.146;2023-07-24T22:24:16;22.10;99.90
4090;DHT22;2059;48.538;12.146;2023-07-24T22:29:18;22.20;99.90
4090;DHT22;2059;48.538;12.146;2023-07-24T22:34:20;22.20;99.90
4090;DHT22;2059;48.538;12.146;2023-07-24T22:39:23;22.10;99.90
4090;DHT22;2059;48.538;12.146;2023-07-24T22:44:25;22.10;99.90
4090;DHT22;2059;48.538;12.146;2023-07-24T22:49:26;22.00;99.90
4090;DHT22;2059;48.538;12.146;2023-07-24T22:54:29;22.00;99.90
4090;DHT22;2059;48.538;12.146;2023-07-24T22:59:31;21.90;99.90
4090;DHT22;2059;48.538;12.146;2023-07-24T23:04:33;21.90;99.90
4090;DHT22;2059;48.538;12.146;2023-07-24T23:09:36;21.80;99.90
4090;DHT22;2059;48.538;12.146;2023-07-24T23:14:38;21.80;99.90
4090;DHT22;2059;48.538;12.146;2023-07-24T23:19:39;21.80;99.90
4090;DHT22;2059;48.538;12.146;2023-07-24T23:24:43;21.80;99.90
4090;DHT22;2059;48.538;12.146;2023-07-24T23:29:45;21.80;99.90
4090;DHT22;2059;48.538;12.146;2023-07-24T23:34:47;21.70;99.90
4090;DHT22;2059;48.538;12.146;2023-07-24T23:39:51;21.70;99.90
4090;DHT22;2059;48.538;12.146;2023-07-24T23:44:52;21.70;99.90
4090;DHT22;2059;48.538;12.146;2023-07-24T23:49:54;21.60;99.90
4090;DHT22;2059;48.538;12.146;2023-07-24T23:54:57;21.60;99.90
4090;DHT22;2059;48.538;12.146;2023-07-24T23:59:59;21.50;99.90
